KPMH/PMH METAR and TAF weather

Enter ICAO airport designator
Station Type Date Time Source
KPMH METAR 2022/07/03 14:35 UTC NOAA

KPMH 031435Z AUTO 00000KT 10SM BKN120 25/18 A3015 RMK AO2 T02530181


Station Type Date Time Source
KPMH Decoded METAR 2022/07/03 14:35 UTC NOAA

Station name not available
Jul 03, 2022 - 10:35 AM EDT / 2022.07.03 1435 UTC
Wind: Calm:0
Visibility: 10 mile(s):0
Sky conditions: mostly cloudy
Temperature: 77.5 F (25.3 C)
Dew Point: 64.6 F (18.1 C)
Relative Humidity: 64%
Pressure (altimeter): 30.15 in. Hg (1020 hPa)
ob: KPMH 031435Z AUTO 00000KT 10SM BKN120 25/18 A3015 RMK AO2 T02530181
cycle: 14

Station Type Date Time Source
KPMH TAF UTC NOAA

Error!

Example: see airport list